Aliso Viejo, CA

11:38 AM PDT on July 25, 2016 (GMT -0700)
University Park | | Change Station

Elev 135 ft 33.66 °N, 117.80 °W | Updated 7 seconds ago

Scattered Clouds
Scattered Clouds
81.1 °F
Feels Like 85 °F
N
0.0
Wind Variable Wind from SW

Today
High -- | Low -- °F
--% Chance of Precip.
Yesterday
High -- | Low -- °F
Precip. -- in
Pressure 29.96 in
Visibility 10.0 miles
Clouds Scattered Clouds 30000 ft
Heat Index 85 °F
Dew Point 70.2 °F
Humidity 69%
Rainfall Not available.
Snow Depth Not available.
5:58 AM 7:55 PM
Waning Gibbous, 63% visible
METAR KSNA 251753Z 23004KT 10SM SCT300 28/19 A2996 RMK AO2 SLP145 T02780189 10278 20211 50000
Pressure 29.96 in
Visibility 10.0 miles
Clouds Scattered Clouds 30000 ft
Heat Index 85 °F
Dew Point 70.2 °F
Humidity 69%
Rainfall Not available.
Snow Depth Not available.
5:58 AM 7:55 PM
Waning Gibbous, 63% visible
METAR KSNA 251753Z 23004KT 10SM SCT300 28/19 A2996 RMK AO2 SLP145 T02780189 10278 20211 50000

10-Day Weather Forecast

Almanac

Astronomy

Jul. 25, 2016 Rise Set
Actual Time
Civil Twilight
Nautical Twilight
Astronomical Twilight
Moon
Length of Visible Light
Length of Day
Tomorrow will be .
, % of the Moon is Illuminated

Today's Extremes

State Highs State Lows

Community

WunderPhotos

Upload Photos

1,927,368 photos uploaded!

WunderBlog® & News

Nearby

Air Quality

  Air Quality AQ Index Pollutant
Not available.

Snow Depth

Station Depth Elevation

Earthquake Activity

City Distance Mag. Time & Date
Minimum magnitude displayed is 2.5.

Coastal Water Temperatures

Place Temperature

Stations

Nearby Weather Stations

Station Location Temp. Windchill Dew Point Humidity Wind Precip. Elev Updated Type
                   

Watches & Warnings

There are currently no watches in effect.